Time;durP1;ratioP1;P1;durP2;ratioP2;P2;SDS_P1;SDS_P2;PMS_P1;PMS_P2;Temp;Humidity;BMP_temperature;BMP_pressure;BME280_temperature;BME280_humidity;BME280_pressure;Samples;Min_cycle;Max_cycle;Signal;HPM_P1;HPM_P2
2023/12/11 00:00:48;;;;;;;5.20;1.60;;;21.00;43.00;;;;;;5035577;28;20340;-53
2023/12/11 00:03:14;;;;;;;4.75;2.03;;;21.00;43.00;;;;;;5034128;28;20030;-54
2023/12/11 00:05:41;;;;;;;5.75;1.73;;;21.00;43.00;;;;;;5035059;28;20041;-52
2023/12/11 00:08:07;;;;;;;4.13;1.90;;;20.90;43.00;;;;;;5029565;28;20079;-55
2023/12/11 00:10:33;;;;;;;6.70;1.88;;;20.90;43.00;;;;;;5036593;28;20120;-55
2023/12/11 00:12:59;;;;;;;6.18;2.13;;;20.90;43.00;;;;;;5038433;28;20025;-54
2023/12/11 00:15:25;;;;;;;6.82;1.83;;;20.90;43.00;;;;;;5038650;28;20041;-53
2023/12/11 00:17:50;;;;;;;5.07;1.60;;;20.90;43.60;;;;;;5026811;28;20049;-55
2023/12/11 00:20:16;;;;;;;6.07;2.17;;;20.90;43.00;;;;;;5018592;28;20034;-54
2023/12/11 00:22:42;;;;;;;4.88;1.88;;;20.90;43.10;;;;;;5026258;28;20395;-51
2023/12/11 00:25:10;;;;;;;4.57;1.80;;;20.90;43.10;;;;;;5038277;28;20113;-52
2023/12/11 00:27:36;;;;;;;4.57;1.73;;;20.90;43.10;;;;;;5025646;28;20029;-52
2023/12/11 00:30:02;;;;;;;5.85;1.73;;;20.90;43.10;;;;;;5030775;28;20017;-55
2023/12/11 00:32:28;;;;;;;5.20;1.85;;;20.90;43.10;;;;;;5036119;28;20028;-58
2023/12/11 00:34:54;;;;;;;6.53;2.20;;;20.90;43.10;;;;;;5053651;28;20037;-58
2023/12/11 00:37:20;;;;;;;3.92;1.40;;;20.90;43.10;;;;;;5037912;28;20122;-57
2023/12/11 00:39:46;;;;;;;5.45;1.83;;;20.90;43.10;;;;;;5034857;28;20033;-57
2023/12/11 00:42:12;;;;;;;5.80;1.80;;;20.80;43.10;;;;;;5037162;28;20034;-50
2023/12/11 00:44:38;;;;;;;5.93;1.85;;;20.80;43.10;;;;;;5038199;28;20489;-51
2023/12/11 00:47:04;;;;;;;7.05;1.90;;;20.80;43.10;;;;;;5034411;28;20462;-52
2023/12/11 00:49:31;;;;;;;6.00;2.03;;;20.80;43.10;;;;;;5037040;28;20037;-53
2023/12/11 00:51:57;;;;;;;5.13;1.60;;;20.80;43.20;;;;;;5037970;28;20098;-54
2023/12/11 00:54:23;;;;;;;4.65;1.55;;;20.80;43.20;;;;;;5037807;28;20029;-57
2023/12/11 00:56:49;;;;;;;6.50;2.03;;;20.70;43.10;;;;;;5050523;28;20345;-53
2023/12/11 00:59:15;;;;;;;6.15;1.98;;;20.70;43.20;;;;;;5027971;28;20099;-54
2023/12/11 01:01:42;;;;;;;3.97;1.60;;;20.70;43.20;;;;;;5017917;28;20113;-56
2023/12/11 01:04:08;;;;;;;6.32;2.00;;;20.70;43.20;;;;;;5017713;28;20030;-54
2023/12/11 01:06:34;;;;;;;6.65;2.03;;;20.70;43.20;;;;;;5020893;28;20044;-59
2023/12/11 01:09:00;;;;;;;4.88;1.77;;;20.70;43.20;;;;;;5034503;28;20033;-54
2023/12/11 01:11:26;;;;;;;5.20;2.15;;;20.70;43.80;;;;;;5037582;28;20091;-56
2023/12/11 01:13:52;;;;;;;5.13;1.92;;;20.70;43.20;;;;;;5037011;28;20067;-56
2023/12/11 01:16:18;;;;;;;4.80;2.05;;;20.60;43.20;;;;;;5035009;28;20037;-49
2023/12/11 01:18:44;;;;;;;5.38;2.10;;;20.60;43.20;;;;;;5021205;28;20046;-55
2023/12/11 01:21:09;;;;;;;5.75;2.08;;;20.60;43.20;;;;;;5031029;28;20039;-54
2023/12/11 01:23:35;;;;;;;4.90;1.60;;;20.60;43.20;;;;;;5036060;28;20025;-56
2023/12/11 01:26:01;;;;;;;5.30;2.17;;;20.60;43.20;;;;;;5036428;28;20021;-55
2023/12/11 01:28:27;;;;;;;7.38;2.38;;;20.60;43.30;;;;;;5020367;28;20040;-59
2023/12/11 01:30:53;;;;;;;5.32;1.92;;;20.60;43.30;;;;;;5017157;28;20029;-58
2023/12/11 01:33:19;;;;;;;4.55;1.83;;;20.60;43.30;;;;;;5017209;28;20030;-60
2023/12/11 01:35:45;;;;;;;6.53;2.20;;;20.50;43.20;;;;;;5016118;28;20380;-56
2023/12/11 01:38:11;;;;;;;5.95;1.77;;;20.50;43.30;;;;;;5033859;28;20029;-54
2023/12/11 01:40:37;;;;;;;4.80;1.90;;;20.50;43.90;;;;;;5020700;28;20344;-50
2023/12/11 01:43:19;;;;;;;5.60;2.03;;;20.50;43.30;;;;;;5017293;28;20116;-52
2023/12/11 01:46:06;;;;;;;3.70;1.50;;;20.50;43.30;;;;;;5017786;28;20036;-56
2023/12/11 01:48:32;;;;;;;5.07;1.77;;;20.50;43.30;;;;;;5036325;28;20025;-57
2023/12/11 01:50:58;;;;;;;6.25;1.80;;;20.50;43.30;;;;;;5036850;28;20068;-54
2023/12/11 01:53:28;;;;;;;4.60;1.70;;;20.50;43.30;;;;;;5037142;28;20030;-52
2023/12/11 01:55:55;;;;;;;7.43;2.17;;;20.50;43.30;;;;;;5036182;28;20045;-56
2023/12/11 01:58:21;;;;;;;4.68;1.73;;;20.50;43.30;;;;;;5028706;28;20325;-52
2023/12/11 02:00:47;;;;;;;4.85;2.00;;;20.40;43.30;;;;;;5026911;28;20084;-57
2023/12/11 02:03:13;;;;;;;5.30;2.05;;;20.50;43.40;;;;;;5036272;28;20025;-54
2023/12/11 02:05:43;;;;;;;5.93;2.00;;;20.40;43.30;;;;;;5035449;28;20407;-52
2023/12/11 02:08:09;;;;;;;7.75;2.65;;;20.40;43.30;;;;;;5026615;28;20459;-55
2023/12/11 02:10:36;;;;;;;5.38;1.83;;;20.50;43.30;;;;;;5036411;28;20109;-54
2023/12/11 02:13:03;;;;;;;6.07;1.80;;;20.40;43.30;;;;;;5034334;28;20351;-55
2023/12/11 02:15:43;;;;;;;6.60;2.40;;;20.40;43.30;;;;;;5036040;28;20083;-51
2023/12/11 02:18:11;;;;;;;5.05;2.22;;;20.40;43.30;;;;;;5028484;28;20064;-51
2023/12/11 02:20:41;;;;;;;6.57;2.03;;;20.40;43.40;;;;;;5036462;28;20064;-54
2023/12/11 02:23:34;;;;;;;6.25;2.03;;;20.40;43.40;;;;;;5036212;28;20033;-56
2023/12/11 02:26:10;;;;;;;5.57;1.95;;;20.40;43.40;;;;;;5036347;28;20052;-55
2023/12/11 02:28:36;;;;;;;6.47;2.00;;;20.40;43.40;;;;;;5026914;28;20109;-51
2023/12/11 02:31:02;;;;;;;6.45;2.35;;;20.30;43.40;;;;;;5015224;28;20042;-54
2023/12/11 02:33:28;;;;;;;6.82;2.22;;;20.30;43.40;;;;;;5024215;28;20160;-52
2023/12/11 02:35:54;;;;;;;4.72;1.98;;;20.30;43.40;;;;;;5051644;28;20044;-57
2023/12/11 02:38:20;;;;;;;6.30;1.77;;;20.30;43.50;;;;;;5032626;28;20441;-57
2023/12/11 02:40:46;;;;;;;4.03;1.42;;;20.30;43.50;;;;;;5016404;28;20041;-57
2023/12/11 02:43:11;;;;;;;6.43;1.80;;;20.30;43.50;;;;;;5016080;28;20033;-56
2023/12/11 02:45:37;;;;;;;5.72;1.88;;;20.30;43.60;;;;;;5016124;28;20037;-57
2023/12/11 02:48:04;;;;;;;5.75;1.70;;;20.30;43.60;;;;;;5022431;28;20052;-53
2023/12/11 02:50:30;;;;;;;5.88;1.83;;;20.30;43.60;;;;;;5034453;28;20029;-53
2023/12/11 02:53:00;;;;;;;4.75;1.92;;;20.30;43.60;;;;;;5032563;28;20029;-58
2023/12/11 02:55:26;;;;;;;6.25;2.10;;;20.30;43.60;;;;;;5029258;28;20030;-55
2023/12/11 02:57:57;;;;;;;5.53;2.00;;;20.30;43.70;;;;;;5031252;28;20038;-58
2023/12/11 03:00:22;;;;;;;4.90;2.00;;;20.30;43.70;;;;;;5015329;28;20040;-58
2023/12/11 03:02:48;;;;;;;5.88;1.98;;;20.30;43.70;;;;;;5035300;28;20029;-56
2023/12/11 03:05:14;;;;;;;5.80;1.92;;;20.30;43.70;;;;;;5020143;28;20034;-55
2023/12/11 03:07:40;;;;;;;6.22;2.00;;;20.30;43.70;;;;;;5020389;28;20072;-56
2023/12/11 03:10:07;;;;;;;5.10;1.70;;;20.20;43.80;;;;;;5015703;28;20062;-51
2023/12/11 03:12:32;;;;;;;5.40;2.05;;;20.20;43.80;;;;;;5015625;28;20439;-53
2023/12/11 03:14:58;;;;;;;5.30;1.83;;;20.20;43.80;;;;;;5015734;28;20121;-57
2023/12/11 03:17:24;;;;;;;6.60;2.00;;;20.20;43.90;;;;;;5022382;28;20025;-53
2023/12/11 03:19:52;;;;;;;5.82;2.00;;;20.20;43.90;;;;;;5034313;28;20025;-54
2023/12/11 03:23:04;;;;;;;5.80;2.08;;;20.30;44.00;;;;;;5030871;28;20033;-54
2023/12/11 03:25:30;;;;;;;5.55;2.05;;;20.20;44.10;;;;;;5024685;28;20044;-56
2023/12/11 03:27:56;;;;;;;4.82;1.67;;;20.20;44.10;;;;;;5018054;28;20029;-55
2023/12/11 03:30:22;;;;;;;4.05;1.52;;;20.20;44.10;;;;;;5025345;28;20017;-55
2023/12/11 03:32:48;;;;;;;3.92;1.67;;;20.20;44.10;;;;;;5022538;28;20042;-54
2023/12/11 03:35:13;;;;;;;4.05;1.60;;;20.20;44.20;;;;;;5020789;28;20052;-53
2023/12/11 03:37:39;;;;;;;4.13;1.45;;;20.20;44.20;;;;;;5034192;28;20064;-57
2023/12/11 03:40:06;;;;;;;4.65;1.67;;;20.20;44.30;;;;;;5034647;28;20033;-51
2023/12/11 03:42:31;;;;;;;5.13;1.60;;;20.20;44.20;;;;;;5034296;28;20124;-50
2023/12/11 03:44:58;;;;;;;5.18;1.40;;;20.20;44.30;;;;;;5035123;28;20120;-58
2023/12/11 03:47:24;;;;;;;4.57;1.58;;;20.20;44.30;;;;;;5039184;28;20037;-56
2023/12/11 03:49:51;;;;;;;4.22;1.48;;;20.10;44.20;;;;;;5037330;28;20505;-47
2023/12/11 03:52:17;;;;;;;4.10;1.50;;;20.20;44.30;;;;;;5037673;28;20105;-51
2023/12/11 03:54:43;;;;;;;6.07;2.10;;;20.20;44.30;;;;;;5042730;28;20045;-57
2023/12/11 03:57:08;;;;;;;4.13;1.55;;;20.10;44.20;;;;;;5054217;28;20040;-55
2023/12/11 03:59:34;;;;;;;4.60;1.65;;;20.10;44.20;;;;;;5050555;28;20364;-55
2023/12/11 04:02:00;;;;;;;4.25;1.60;;;20.10;44.20;;;;;;5037591;28;20108;-55
2023/12/11 04:04:26;;;;;;;3.75;1.45;;;20.10;44.20;;;;;;5020160;28;20080;-52
2023/12/11 04:06:52;;;;;;;5.05;1.67;;;20.10;44.20;;;;;;5034173;28;20504;-58
2023/12/11 04:09:18;;;;;;;3.45;1.15;;;20.10;44.30;;;;;;5036251;28;20103;-50
2023/12/11 04:11:44;;;;;;;5.38;1.75;;;20.10;44.30;;;;;;5034597;28;20462;-53
2023/12/11 04:14:11;;;;;;;4.18;1.77;;;20.10;44.20;;;;;;5037686;28;20037;-52
2023/12/11 04:16:41;;;;;;;4.07;1.15;;;20.10;44.30;;;;;;5036010;28;20127;-53
2023/12/11 04:19:07;;;;;;;2.67;1.13;;;20.10;44.20;;;;;;5020742;28;20373;-55
2023/12/11 04:21:33;;;;;;;3.55;1.27;;;20.10;44.30;;;;;;5019307;28;20034;-57
2023/12/11 04:23:59;;;;;;;3.65;1.30;;;20.10;44.30;;;;;;5035702;28;20036;-51
2023/12/11 04:26:25;;;;;;;4.38;1.40;;;20.10;44.30;;;;;;5038409;28;20112;-55
2023/12/11 04:28:51;;;;;;;2.67;1.15;;;20.10;44.30;;;;;;5035979;28;20343;-48
2023/12/11 04:31:16;;;;;;;3.83;1.42;;;20.10;44.30;;;;;;5053492;28;20044;-54
2023/12/11 04:33:42;;;;;;;3.88;1.30;;;20.10;44.30;;;;;;5036817;28;20060;-56
2023/12/11 04:36:08;;;;;;;3.53;1.25;;;20.00;44.30;;;;;;5038267;28;20033;-57
2023/12/11 04:38:34;;;;;;;4.25;1.50;;;20.10;44.30;;;;;;5029007;28;20399;-58
2023/12/11 04:41:00;;;;;;;4.63;1.60;;;20.00;44.30;;;;;;5038317;28;20037;-57
2023/12/11 04:43:26;;;;;;;4.15;1.40;;;20.00;44.30;;;;;;5037456;28;20033;-58
2023/12/11 04:45:52;;;;;;;3.08;1.38;;;20.00;44.30;;;;;;5038023;28;20029;-54
2023/12/11 04:48:18;;;;;;;4.65;1.60;;;20.00;44.40;;;;;;5037573;28;20038;-56
2023/12/11 04:50:43;;;;;;;3.97;1.20;;;20.00;44.40;;;;;;5022100;28;20025;-54
2023/12/11 04:53:09;;;;;;;5.25;1.80;;;20.00;44.40;;;;;;5046639;28;20463;-55
2023/12/11 04:55:36;;;;;;;3.63;1.23;;;20.00;44.40;;;;;;5036937;28;20041;-50
2023/12/11 04:58:02;;;;;;;4.72;1.50;;;20.00;44.40;;;;;;5021401;28;20033;-56
2023/12/11 05:00:27;;;;;;;5.35;1.80;;;20.00;44.40;;;;;;5017769;28;20037;-56
2023/12/11 05:02:53;;;;;;;4.95;1.60;;;20.00;44.50;;;;;;5031354;28;20064;-50
2023/12/11 05:05:19;;;;;;;4.38;1.35;;;20.00;44.50;;;;;;5053503;28;20517;-56
2023/12/11 05:07:45;;;;;;;3.88;1.30;;;20.00;44.50;;;;;;5031978;28;20060;-55
2023/12/11 05:10:11;;;;;;;4.88;1.55;;;20.00;44.50;;;;;;5024839;28;20418;-57
2023/12/11 05:12:37;;;;;;;3.00;1.20;;;20.00;44.70;;;;;;5025661;28;20025;-53
2023/12/11 05:15:03;;;;;;;5.00;1.60;;;20.00;44.50;;;;;;5036042;28;20037;-55
2023/12/11 05:17:28;;;;;;;3.97;1.77;;;20.00;44.50;;;;;;5029696;28;20030;-55
2023/12/11 05:19:54;;;;;;;4.22;1.50;;;20.00;44.50;;;;;;5018540;28;20036;-58
2023/12/11 05:22:20;;;;;;;4.55;1.40;;;20.00;44.50;;;;;;5017976;28;20034;-55
2023/12/11 05:24:48;;;;;;;3.78;1.20;;;20.00;44.50;;;;;;5017281;28;20034;-56
2023/12/11 05:27:14;;;;;;;6.25;1.77;;;20.00;44.50;;;;;;5017640;28;20052;-52
2023/12/11 05:29:39;;;;;;;3.85;1.40;;;20.00;44.50;;;;;;5024119;28;20034;-55
2023/12/11 05:32:06;;;;;;;3.92;1.33;;;20.00;44.60;;;;;;5017453;28;20048;-58
2023/12/11 05:34:31;;;;;;;4.45;1.50;;;20.00;44.60;;;;;;5036087;28;20029;-55
2023/12/11 05:36:57;;;;;;;5.75;1.95;;;20.00;44.60;;;;;;5036610;28;20444;-57
2023/12/11 05:39:23;;;;;;;4.82;1.48;;;20.00;44.60;;;;;;5033997;28;20033;-56
2023/12/11 05:41:49;;;;;;;4.57;1.50;;;19.90;44.60;;;;;;5035807;28;20356;-57
2023/12/11 05:44:15;;;;;;;4.90;1.70;;;19.90;44.60;;;;;;5032696;28;20033;-55
2023/12/11 05:46:40;;;;;;;4.18;1.40;;;19.90;44.60;;;;;;5030820;28;20025;-57
2023/12/11 05:49:06;;;;;;;5.22;1.77;;;19.90;44.60;;;;;;5017649;28;20037;-52
2023/12/11 05:51:32;;;;;;;4.80;1.75;;;19.90;44.70;;;;;;5016584;28;20044;-53
2023/12/11 05:53:58;;;;;;;4.63;1.55;;;19.90;44.60;;;;;;5026112;28;20068;-48
2023/12/11 05:56:24;;;;;;;4.57;1.60;;;19.90;44.70;;;;;;5036617;28;20073;-58
2023/12/11 05:58:51;;;;;;;3.30;1.35;;;19.90;44.70;;;;;;5036652;28;20111;-54
2023/12/11 06:01:17;;;;;;;4.97;1.73;;;19.90;44.70;;;;;;5036200;28;20033;-52
2023/12/11 06:03:43;;;;;;;3.70;1.27;;;19.90;44.70;;;;;;5030711;28;20096;-51
2023/12/11 06:06:16;;;;;;;5.22;1.60;;;19.90;44.70;;;;;;5016615;28;20037;-55
2023/12/11 06:08:42;;;;;;;4.47;1.70;;;19.90;44.70;;;;;;5030698;28;20424;-55
2023/12/11 06:11:09;;;;;;;3.63;1.33;;;19.90;44.80;;;;;;5016234;28;20399;-56
2023/12/11 06:13:35;;;;;;;4.95;1.58;;;19.90;44.80;;;;;;5015531;28;20038;-53
2023/12/11 06:16:01;;;;;;;5.53;1.95;;;19.90;44.70;;;;;;5015348;28;20049;-51
2023/12/11 06:18:26;;;;;;;4.38;1.70;;;19.90;44.70;;;;;;5026840;28;20084;-53
2023/12/11 06:20:52;;;;;;;4.97;1.58;;;19.90;44.80;;;;;;5015819;28;20115;-57
2023/12/11 06:23:18;;;;;;;5.35;1.58;;;19.90;44.70;;;;;;5016320;28;20364;-55
2023/12/11 06:25:44;;;;;;;4.68;1.52;;;19.80;44.70;;;;;;5016304;28;20352;-48
2023/12/11 06:28:10;;;;;;;5.32;1.73;;;19.80;44.70;;;;;;5016247;28;20099;-58
2023/12/11 06:30:36;;;;;;;4.63;1.65;;;19.90;44.80;;;;;;5016221;28;20045;-55
2023/12/11 06:33:02;;;;;;;4.95;1.70;;;19.90;44.80;;;;;;5016190;28;20134;-54
2023/12/11 06:35:28;;;;;;;4.68;1.58;;;19.80;44.80;;;;;;5014794;28;20449;-55
2023/12/11 06:37:53;;;;;;;3.88;1.45;;;19.80;44.80;;;;;;5024122;28;20030;-57
2023/12/11 06:40:19;;;;;;;2.75;1.10;;;19.90;44.80;;;;;;5016065;28;20083;-56
2023/12/11 06:42:45;;;;;;;4.18;1.20;;;19.80;44.80;;;;;;5017078;28;20045;-53
2023/12/11 06:45:12;;;;;;;5.10;1.70;;;19.80;44.80;;;;;;5014861;28;20038;-58
2023/12/11 06:47:38;;;;;;;5.95;1.85;;;19.80;44.80;;;;;;5021319;28;20112;-56
2023/12/11 06:50:04;;;;;;;6.25;1.80;;;19.80;44.80;;;;;;5033879;28;20413;-57
2023/12/11 06:52:30;;;;;;;3.28;1.48;;;19.80;44.80;;;;;;5035026;28;20455;-55
2023/12/11 06:54:56;;;;;;;5.82;1.63;;;19.80;44.90;;;;;;5048762;28;20041;-55
2023/12/11 06:57:22;;;;;;;3.95;1.48;;;19.80;44.90;;;;;;5018950;28;20025;-59
2023/12/11 06:59:48;;;;;;;5.05;1.40;;;19.80;44.90;;;;;;5034937;28;20091;-59
2023/12/11 07:02:14;;;;;;;3.63;1.30;;;19.80;44.90;;;;;;5021376;28;20068;-54
2023/12/11 07:04:41;;;;;;;4.05;1.30;;;19.80;44.90;;;;;;5032642;28;20137;-59
2023/12/11 07:07:07;;;;;;;4.97;1.55;;;19.80;45.00;;;;;;5028322;28;20030;-55
2023/12/11 07:09:33;;;;;;;3.65;1.30;;;19.80;45.00;;;;;;5016679;28;20507;-52
2023/12/11 07:11:59;;;;;;;4.22;1.27;;;19.80;45.00;;;;;;5020034;28;20030;-55
2023/12/11 07:14:25;;;;;;;4.43;1.38;;;19.80;45.00;;;;;;5015791;28;20030;-51
2023/12/11 07:16:51;;;;;;;3.40;1.25;;;19.80;45.00;;;;;;5018441;28;20080;-57
2023/12/11 07:19:19;;;;;;;5.05;1.63;;;19.80;45.60;;;;;;5021477;28;20050;-57
2023/12/11 07:21:45;;;;;;;4.47;1.50;;;19.80;45.00;;;;;;5024964;28;20034;-52
2023/12/11 07:24:11;;;;;;;2.80;1.10;;;19.80;45.10;;;;;;5024238;28;20445;-52
2023/12/11 07:26:37;;;;;;;4.78;1.52;;;19.80;45.00;;;;;;5033265;28;20179;-53
2023/12/11 07:29:07;;;;;;;3.78;1.38;;;19.80;45.00;;;;;;5027693;28;20026;-50
2023/12/11 07:31:33;;;;;;;3.45;1.05;;;19.80;45.00;;;;;;5034788;28;20037;-56
2023/12/11 07:33:59;;;;;;;3.55;1.15;;;19.80;45.00;;;;;;5020437;28;20026;-54
2023/12/11 07:36:25;;;;;;;3.33;1.25;;;19.80;45.10;;;;;;5015119;28;20052;-57
2023/12/11 07:38:51;;;;;;;3.03;1.17;;;19.80;45.00;;;;;;5019468;28;20057;-59
2023/12/11 07:41:20;;;;;;;5.05;1.20;;;19.80;45.00;;;;;;5034260;28;20368;-56
2023/12/11 07:43:47;;;;;;;3.15;1.48;;;19.70;45.00;;;;;;5035720;28;20034;-57
2023/12/11 07:46:19;;;;;;;2.50;1.02;;;19.80;45.10;;;;;;5025175;28;20034;-54
2023/12/11 07:48:46;;;;;;;5.38;1.50;;;19.80;45.10;;;;;;5021586;28;20025;-54
2023/12/11 07:51:25;;;;;;;3.80;1.23;;;19.80;45.10;;;;;;5013983;28;20357;-50
2023/12/11 07:53:57;;;;;;;3.75;1.30;;;19.70;45.00;;;;;;5027045;28;20362;-55
2023/12/11 07:56:24;;;;;;;3.08;1.05;;;19.80;45.50;;;;;;5031285;28;20042;-61
2023/12/11 07:58:51;;;;;;;2.88;1.05;;;19.70;45.10;;;;;;5020839;28;20397;-50
2023/12/11 08:01:17;;;;;;;2.72;1.20;;;19.80;45.20;;;;;;5033564;28;20125;-54
2023/12/11 08:03:44;;;;;;;2.80;1.08;;;19.80;45.20;;;;;;5034868;28;20045;-52
2023/12/11 08:06:10;;;;;;;3.25;1.13;;;19.70;45.20;;;;;;5034057;28;20334;-52
2023/12/11 08:08:45;;;;;;;3.08;1.05;;;19.70;45.20;;;;;;5028059;28;20021;-52
2023/12/11 08:11:20;;;;;;;3.63;1.15;;;19.70;45.20;;;;;;5020417;28;20026;-54
2023/12/11 08:13:46;;;;;;;2.50;1.08;;;19.70;45.30;;;;;;5013581;28;20037;-53
2023/12/11 08:16:13;;;;;;;2.83;1.30;;;19.70;45.30;;;;;;5014932;28;20334;-53
2023/12/11 08:18:40;;;;;;;3.35;1.10;;;19.70;45.30;;;;;;5019630;28;20077;-56
2023/12/11 08:21:06;;;;;;;2.95;1.17;;;19.70;45.40;;;;;;5018921;28;20109;-54
2023/12/11 08:23:32;;;;;;;2.90;1.05;;;19.70;45.40;;;;;;5015088;28;20076;-56
2023/12/11 08:25:58;;;;;;;3.28;1.02;;;19.70;45.40;;;;;;5014525;28;20041;-58
2023/12/11 08:28:24;;;;;;;2.63;0.80;;;19.70;45.40;;;;;;5025595;28;20064;-54
2023/12/11 08:30:50;;;;;;;2.67;1.27;;;19.70;45.50;;;;;;5027155;28;20034;-56
2023/12/11 08:33:16;;;;;;;3.28;1.10;;;19.70;46.20;;;;;;5032350;28;20459;-57
2023/12/11 08:35:45;;;;;;;2.38;0.82;;;19.70;45.60;;;;;;5045630;28;20096;-53
2023/12/11 08:38:11;;;;;;;2.97;0.90;;;19.70;45.50;;;;;;5025651;28;20034;-49
2023/12/11 08:40:37;;;;;;;2.42;1.02;;;19.70;45.50;;;;;;5018457;28;20037;-58
2023/12/11 08:43:03;;;;;;;3.00;1.17;;;19.70;45.60;;;;;;5020754;28;20419;-57
2023/12/11 08:45:29;;;;;;;2.85;0.90;;;19.70;45.60;;;;;;5029166;28;20041;-58
2023/12/11 08:47:55;;;;;;;4.05;1.02;;;19.70;45.60;;;;;;5032145;28;20440;-58
2023/12/11 08:50:21;;;;;;;2.88;0.85;;;19.70;45.60;;;;;;5021667;28;20093;-56
2023/12/11 08:52:46;;;;;;;4.03;1.10;;;19.70;45.60;;;;;;5025771;28;20021;-59
2023/12/11 08:55:12;;;;;;;3.17;1.00;;;19.70;45.60;;;;;;5025311;28;20048;-52
2023/12/11 08:57:41;;;;;;;1.60;0.77;;;19.70;45.60;;;;;;5031434;28;20045;-52
2023/12/11 09:00:10;;;;;;;2.85;1.02;;;19.70;45.60;;;;;;5030460;28;20124;-55
2023/12/11 09:02:36;;;;;;;1.77;0.82;;;19.70;45.60;;;;;;5031444;28;20026;-53
2023/12/11 09:05:02;;;;;;;2.45;1.00;;;19.80;45.60;;;;;;5027422;28;20030;-54
2023/12/11 09:07:28;;;;;;;1.52;0.70;;;19.80;45.50;;;;;;5032258;28;20064;-58
2023/12/11 09:09:53;;;;;;;2.42;0.93;;;19.90;45.50;;;;;;5033450;28;20446;-59
2023/12/11 09:12:19;;;;;;;1.73;0.80;;;19.90;45.40;;;;;;5031100;28;20053;-56
2023/12/11 09:14:45;;;;;;;1.88;0.68;;;19.90;45.30;;;;;;5029890;28;20052;-54
2023/12/11 09:17:11;;;;;;;2.45;1.02;;;20.00;45.30;;;;;;5020588;28;20030;-54
2023/12/11 09:19:37;;;;;;;1.58;0.70;;;20.00;45.20;;;;;;5033199;28;20042;-55
2023/12/11 09:22:03;;;;;;;2.28;0.73;;;20.10;45.10;;;;;;5038665;28;20025;-57
2023/12/11 09:24:29;;;;;;;1.45;0.57;;;20.10;45.00;;;;;;5034412;28;20440;-53
2023/12/11 09:26:55;;;;;;;2.10;0.60;;;20.10;44.90;;;;;;5018488;28;20028;-55
2023/12/11 09:29:21;;;;;;;2.22;0.80;;;20.20;44.80;;;;;;5035889;28;20045;-54
2023/12/11 09:31:47;;;;;;;2.45;1.00;;;20.30;44.70;;;;;;5032092;28;20492;-59
2023/12/11 09:34:12;;;;;;;2.47;0.60;;;20.30;44.50;;;;;;5017178;28;20352;-52
2023/12/11 09:36:38;;;;;;;2.28;0.80;;;20.40;44.50;;;;;;5017268;28;20033;-53
2023/12/11 09:39:07;;;;;;;3.08;0.80;;;20.40;44.30;;;;;;5026943;28;20095;-52
2023/12/11 09:41:34;;;;;;;1.88;0.70;;;20.50;44.20;;;;;;5035092;28;20515;-53
2023/12/11 09:44:01;;;;;;;2.15;0.75;;;20.50;44.10;;;;;;5034253;28;20037;-56
2023/12/11 09:46:31;;;;;;;1.42;0.60;;;20.60;44.00;;;;;;5024671;28;20044;-58
2023/12/11 09:48:57;;;;;;;0.95;0.60;;;20.60;43.80;;;;;;5016403;28;20030;-55
2023/12/11 09:51:23;;;;;;;1.35;0.70;;;20.70;43.80;;;;;;5026394;28;20091;-59
2023/12/11 09:53:52;;;;;;;3.10;0.80;;;20.70;43.60;;;;;;5036972;28;20098;-56
2023/12/11 09:56:18;;;;;;;1.90;0.88;;;20.70;43.50;;;;;;5033660;28;20067;-55
2023/12/11 09:58:45;;;;;;;2.17;0.57;;;20.80;43.40;;;;;;5015782;28;20116;-55
2023/12/11 10:01:13;;;;;;;1.67;0.70;;;20.80;43.30;;;;;;5017612;28;20030;-56
2023/12/11 10:03:39;;;;;;;2.40;0.90;;;20.90;43.30;;;;;;5035267;28;20041;-48
2023/12/11 10:06:05;;;;;;;1.88;0.85;;;20.80;43.10;;;;;;5036524;28;20025;-54
2023/12/11 10:08:40;;;;;;;1.67;0.60;;;20.90;43.10;;;;;;5026178;28;20032;-55
2023/12/11 10:11:11;;;;;;;2.83;0.82;;;20.90;43.00;;;;;;5036605;28;20033;-55
2023/12/11 10:13:40;;;;;;;1.13;0.52;;;20.90;42.90;;;;;;5032625;28;20026;-57
2023/12/11 10:16:29;;;;;;;1.55;0.52;;;21.00;42.90;;;;;;5016791;28;20045;-56
2023/12/11 10:18:55;;;;;;;1.88;0.70;;;20.90;42.80;;;;;;5024588;28;20079;-54
2023/12/11 10:21:26;;;;;;;2.13;0.80;;;21.00;42.80;;;;;;5036437;28;20037;-54
2023/12/11 10:24:06;;;;;;;2.88;0.88;;;21.00;42.80;;;;;;5033708;28;20026;-51
2023/12/11 10:26:33;;;;;;;3.63;0.85;;;21.00;42.70;;;;;;5036326;28;20033;-54
2023/12/11 10:29:19;;;;;;;1.63;0.90;;;21.00;42.70;;;;;;5033110;28;20349;-54
2023/12/11 10:31:46;;;;;;;2.75;0.88;;;21.00;42.60;;;;;;5016264;28;20511;-53
2023/12/11 10:34:12;;;;;;;2.25;0.85;;;21.00;42.60;;;;;;5031846;28;20113;-50
2023/12/11 10:36:48;;;;;;;1.27;0.50;;;21.00;42.50;;;;;;5017181;28;20129;-54
2023/12/11 10:39:14;;;;;;;2.67;0.80;;;21.00;42.50;;;;;;5015805;28;20034;-51
2023/12/11 10:41:40;;;;;;;1.85;0.70;;;21.00;42.50;;;;;;5029262;28;20034;-53
2023/12/11 10:44:06;;;;;;;2.08;0.75;;;21.00;42.50;;;;;;5036095;28;20033;-55
2023/12/11 10:46:32;;;;;;;1.73;0.57;;;21.00;42.50;;;;;;5032571;28;20033;-59
2023/12/11 10:49:00;;;;;;;4.05;1.10;;;21.00;43.20;;;;;;5034560;28;20029;-58
2023/12/11 10:51:26;;;;;;;1.63;0.77;;;21.00;42.50;;;;;;5033575;28;20041;-58
2023/12/11 10:53:52;;;;;;;2.22;0.85;;;21.00;42.50;;;;;;5035822;28;20037;-54
2023/12/11 10:56:18;;;;;;;1.88;0.65;;;21.00;42.50;;;;;;5034077;28;20041;-55
2023/12/11 10:58:44;;;;;;;1.85;0.70;;;21.00;42.50;;;;;;5015398;28;20357;-54
2023/12/11 11:01:12;;;;;;;2.72;0.95;;;21.00;42.50;;;;;;5015623;28;20064;-55
2023/12/11 11:03:38;;;;;;;1.80;0.80;;;21.00;42.50;;;;;;5015836;28;20330;-54
2023/12/11 11:06:06;;;;;;;2.72;1.00;;;21.00;42.50;;;;;;5016596;28;20029;-55
2023/12/11 11:08:40;;;;;;;3.20;1.00;;;21.00;42.50;;;;;;5019512;28;20109;-57
2023/12/11 11:11:31;;;;;;;1.48;0.52;;;20.90;42.40;;;;;;5015909;28;20034;-55
2023/12/11 11:14:15;;;;;;;3.08;1.13;;;20.90;42.40;;;;;;5020914;28;20095;-56
2023/12/11 11:16:54;;;;;;;1.95;0.80;;;20.90;42.40;;;;;;5033844;28;20037;-54
2023/12/11 11:19:20;;;;;;;2.63;1.05;;;20.90;42.40;;;;;;5022510;28;20112;-52
2023/12/11 11:22:04;;;;;;;3.25;0.93;;;20.90;42.40;;;;;;5014409;28;20045;-58
2023/12/11 11:24:30;;;;;;;2.13;0.82;;;20.90;42.40;;;;;;5023610;28;20072;-57
2023/12/11 11:26:57;;;;;;;2.85;1.02;;;20.90;42.40;;;;;;5025088;28;20441;-56
2023/12/11 11:29:42;;;;;;;2.55;0.90;;;20.90;42.40;;;;;;5025977;28;20045;-58
2023/12/11 11:32:08;;;;;;;3.33;0.90;;;20.90;42.40;;;;;;5015202;28;20034;-57
2023/12/11 11:34:40;;;;;;;1.58;0.68;;;20.80;42.40;;;;;;5016533;28;20101;-54
2023/12/11 11:37:10;;;;;;;2.58;0.80;;;20.80;42.40;;;;;;5035317;28;20104;-56
2023/12/11 11:40:02;;;;;;;1.27;0.57;;;20.90;42.50;;;;;;5034538;28;20042;-50
2023/12/11 11:42:32;;;;;;;2.15;0.80;;;20.80;42.40;;;;;;5014084;28;20042;-56
2023/12/11 11:45:04;;;;;;;2.67;1.15;;;20.80;42.50;;;;;;5015148;28;20041;-53
2023/12/11 11:47:31;;;;;;;1.65;0.80;;;20.90;42.50;;;;;;5032654;28;20429;-50
2023/12/11 11:50:12;;;;;;;2.22;0.73;;;20.90;42.50;;;;;;5035190;28;20109;-55
2023/12/11 11:52:41;;;;;;;2.90;0.80;;;20.80;42.40;;;;;;5031437;28;20034;-58
2023/12/11 11:55:30;;;;;;;1.45;0.73;;;20.80;42.50;;;;;;5023221;28;20351;-59
2023/12/11 11:57:56;;;;;;;1.55;0.70;;;20.80;42.50;;;;;;5007096;28;20053;-56
2023/12/11 12:00:23;;;;;;;1.70;0.60;;;20.80;42.50;;;;;;5031283;28;20428;-57
2023/12/11 12:03:06;;;;;;;2.05;0.80;;;20.80;42.50;;;;;;5032554;28;20049;-57
2023/12/11 12:05:32;;;;;;;2.22;0.98;;;20.80;42.50;;;;;;5028326;28;20389;-58
2023/12/11 12:08:00;;;;;;;3.90;0.82;;;20.80;42.50;;;;;;5030821;28;20091;-59
2023/12/11 12:10:26;;;;;;;1.63;0.52;;;20.80;42.40;;;;;;5029997;28;20025;-59
2023/12/11 12:12:56;;;;;;;2.58;0.95;;;20.80;42.40;;;;;;5032230;28;20053;-57
2023/12/11 12:15:22;;;;;;;2.33;0.75;;;20.90;42.40;;;;;;5028229;28;20097;-56
2023/12/11 12:17:48;;;;;;;2.28;0.70;;;20.90;42.30;;;;;;5025707;28;20058;-55
2023/12/11 12:20:18;;;;;;;1.67;0.70;;;20.90;42.20;;;;;;5029020;28;20030;-53
2023/12/11 12:23:15;;;;;;;1.95;0.65;;;20.90;42.10;;;;;;5026444;28;20029;-59
2023/12/11 12:25:40;;;;;;;2.13;0.47;;;20.90;42.00;;;;;;5010686;28;20069;-52
2023/12/11 12:28:08;;;;;;;3.25;0.60;;;20.90;41.90;;;;;;5036154;28;20400;-54
2023/12/11 12:30:34;;;;;;;1.88;0.60;;;20.90;42.50;;;;;;5039132;28;20332;-55
2023/12/11 12:33:03;;;;;;;1.70;0.70;;;20.90;41.80;;;;;;5032088;28;20029;-51
2023/12/11 12:35:32;;;;;;;1.50;0.60;;;21.00;41.80;;;;;;5033362;28;20034;-54
2023/12/11 12:37:58;;;;;;;2.30;0.77;;;20.90;41.70;;;;;;5029372;28;20096;-53
2023/12/11 12:40:24;;;;;;;1.50;0.60;;;21.00;41.60;;;;;;5029656;28;20045;-58
2023/12/11 12:42:50;;;;;;;1.90;0.73;;;21.00;41.60;;;;;;5030292;28;20029;-54
2023/12/11 12:45:28;;;;;;;0.95;0.40;;;21.00;41.50;;;;;;5032911;28;20029;-53
2023/12/11 12:47:54;;;;;;;0.82;0.43;;;21.00;41.40;;;;;;5025795;28;20048;-52
2023/12/11 12:50:27;;;;;;;2.47;1.00;;;21.00;41.40;;;;;;5031400;28;20432;-55